createdAt,value
2023-03-25T00:01:16.427Z,45.68
2023-03-25T00:06:18.596Z,45.50
2023-03-25T00:11:20.894Z,45.64
2023-03-25T00:16:22.924Z,45.34
2023-03-25T00:21:25.029Z,45.19
2023-03-25T00:26:30.389Z,45.24
2023-03-25T00:31:32.590Z,45.20
2023-03-25T00:36:38.000Z,45.39
2023-03-25T00:41:42.234Z,45.06
2023-03-25T00:46:44.157Z,45.23
2023-03-25T00:51:52.886Z,45.05
2023-03-25T00:56:56.545Z,45.14
2023-03-25T01:01:59.092Z,45.20
2023-03-25T01:07:01.916Z,44.85
2023-03-25T01:12:04.115Z,44.87
2023-03-25T01:17:06.275Z,45.14
2023-03-25T01:22:08.180Z,44.64
2023-03-25T01:27:10.220Z,44.85
2023-03-25T01:32:12.305Z,44.58
2023-03-25T01:37:14.392Z,44.95
2023-03-25T01:42:16.614Z,44.90
2023-03-25T01:47:18.817Z,44.86
2023-03-25T01:52:26.634Z,44.72
2023-03-25T01:57:31.437Z,44.62
2023-03-25T02:02:36.995Z,44.63
2023-03-25T02:07:43.207Z,44.67
2023-03-25T02:12:47.425Z,44.47
2023-03-25T02:18:01.879Z,44.53
2023-03-25T02:23:22.534Z,44.18
2023-03-25T02:28:36.162Z,44.50
2023-03-25T02:34:01.877Z,44.25
2023-03-25T02:39:09.160Z,44.18
2023-03-25T02:45:07.633Z,44.38
2023-03-25T02:50:21.104Z,44.04
2023-03-25T02:55:25.857Z,44.16
2023-03-25T03:00:30.169Z,44.33
2023-03-25T03:05:39.881Z,44.40
2023-03-25T03:11:04.132Z,44.33
2023-03-25T03:16:14.495Z,44.39
2023-03-25T03:21:23.746Z,44.39
2023-03-25T03:26:45.506Z,44.44
2023-03-25T03:32:07.473Z,44.28
2023-03-25T03:37:18.888Z,43.99
2023-03-25T03:42:27.560Z,44.02
2023-03-25T03:47:34.562Z,44.22
2023-03-25T03:52:48.436Z,44.15
2023-03-25T03:58:02.281Z,44.20
2023-03-25T04:03:18.549Z,44.12
2023-03-25T04:08:34.665Z,44.35
2023-03-25T04:13:40.691Z,44.10
2023-03-25T04:18:43.845Z,44.25
2023-03-25T04:23:46.591Z,44.08
2023-03-25T04:28:48.572Z,44.20
2023-03-25T04:33:51.026Z,44.04
2023-03-25T04:38:53.523Z,43.99
2023-03-25T04:43:55.641Z,43.83
2023-03-25T04:48:58.295Z,43.82
2023-03-25T04:54:01.341Z,43.85
2023-03-25T04:59:04.659Z,43.84
2023-03-25T05:04:07.088Z,44.08
2023-03-25T05:09:14.803Z,43.89
2023-03-25T05:14:19.460Z,44.16
2023-03-25T05:19:22.090Z,44.06
2023-03-25T05:24:23.956Z,44.04
2023-03-25T05:29:26.145Z,44.00
2023-03-25T05:34:30.399Z,43.67
2023-03-25T05:39:32.499Z,43.74
2023-03-25T05:44:34.404Z,43.90
2023-03-25T05:49:36.525Z,43.90
2023-03-25T05:54:41.942Z,43.99
2023-03-25T05:59:43.845Z,43.86
2023-03-25T06:04:50.766Z,44.03
2023-03-25T06:09:54.450Z,43.87
2023-03-25T06:14:56.567Z,43.94
2023-03-25T06:20:00.950Z,44.05
2023-03-25T06:25:04.043Z,43.83
2023-03-25T06:30:08.359Z,43.74
2023-03-25T06:35:12.026Z,43.82
2023-03-25T06:40:14.869Z,43.62
2023-03-25T06:45:16.783Z,43.74
2023-03-25T06:50:18.716Z,43.86
2023-03-25T06:55:20.601Z,44.20
2023-03-25T07:00:24.476Z,43.76
2023-03-25T07:05:26.758Z,43.87
2023-03-25T07:10:28.734Z,43.83
2023-03-25T07:15:31.014Z,43.77
2023-03-25T07:20:33.086Z,43.85
2023-03-25T07:25:35.061Z,43.96
2023-03-25T07:30:37.058Z,43.83
2023-03-25T07:35:39.223Z,43.72
2023-03-25T07:40:41.420Z,43.62
2023-03-25T07:45:43.979Z,43.66
2023-03-25T07:50:58.283Z,43.52
2023-03-25T07:56:00.247Z,43.58
2023-03-25T08:01:02.315Z,43.61
2023-03-25T08:06:04.767Z,43.59
2023-03-25T08:11:06.956Z,43.51
2023-03-25T08:16:15.754Z,43.86
2023-03-25T08:21:17.836Z,43.72
2023-03-25T08:26:19.828Z,43.43
2023-03-25T08:31:22.213Z,42.28
2023-03-25T08:36:24.530Z,41.54
2023-03-25T08:41:26.388Z,41.17
2023-03-25T08:46:28.467Z,40.88
2023-03-25T08:51:30.738Z,40.92
2023-03-25T08:56:32.876Z,40.75
2023-03-25T09:01:35.063Z,40.92
2023-03-25T09:06:47.156Z,40.72
2023-03-25T09:11:50.766Z,40.29
2023-03-25T09:16:52.675Z,40.59
2023-03-25T09:21:54.823Z,40.72
2023-03-25T09:26:56.915Z,40.82
2023-03-25T09:32:00.200Z,40.62
2023-03-25T09:37:03.757Z,40.83
2023-03-25T09:42:23.788Z,41.12
2023-03-25T09:47:27.231Z,40.90
2023-03-25T09:52:47.282Z,41.20
2023-03-25T09:57:55.526Z,41.30
2023-03-25T10:03:00.328Z,42.10
2023-03-25T10:08:26.855Z,42.20
2023-03-25T10:13:57.713Z,42.04
2023-03-25T10:19:39.956Z,41.89
2023-03-25T10:24:57.150Z,41.74
2023-03-25T10:30:18.512Z,41.97
2023-03-25T10:35:25.347Z,41.88
2023-03-25T10:41:12.332Z,41.93
2023-03-25T10:46:19.172Z,41.81
2023-03-25T10:51:27.029Z,43.14
2023-03-25T10:56:33.123Z,43.63
2023-03-25T11:01:41.473Z,43.66
2023-03-25T11:06:57.906Z,44.35
2023-03-25T11:12:06.723Z,44.31
2023-03-25T11:17:17.031Z,44.66
2023-03-25T11:22:25.305Z,44.73
2023-03-25T11:27:29.670Z,45.21
2023-03-25T11:32:39.806Z,45.17
2023-03-25T11:37:48.185Z,45.09
2023-03-25T11:42:56.085Z,45.35
2023-03-25T11:48:19.529Z,45.02
2023-03-25T11:53:22.897Z,45.62
2023-03-25T11:58:32.276Z,45.31
2023-03-25T12:03:36.105Z,45.37
2023-03-25T12:08:57.402Z,45.35
2023-03-25T12:14:38.255Z,45.31
2023-03-25T12:20:13.036Z,45.13
2023-03-25T12:25:21.041Z,44.83
2023-03-25T12:30:35.195Z,44.10
2023-03-25T12:36:07.298Z,43.44
2023-03-25T12:41:15.122Z,43.62
2023-03-25T12:46:26.070Z,44.19
2023-03-25T12:51:28.288Z,44.09
2023-03-25T12:56:35.853Z,44.22
2023-03-25T13:02:05.195Z,44.28
2023-03-25T13:07:38.239Z,44.82
2023-03-25T13:12:43.223Z,44.62
2023-03-25T13:18:07.661Z,44.95
2023-03-25T13:23:17.852Z,44.68
2023-03-25T13:28:30.010Z,44.49
2023-03-25T13:33:38.352Z,44.51
2023-03-25T13:39:21.355Z,44.08
2023-03-25T13:44:41.964Z,44.14
2023-03-25T13:49:51.406Z,43.99
2023-03-25T13:55:06.774Z,43.91
2023-03-25T14:00:27.645Z,43.78
2023-03-25T14:06:00.985Z,43.91
2023-03-25T14:11:25.088Z,44.10
2023-03-25T14:16:31.302Z,44.08
2023-03-25T14:21:39.714Z,44.47
2023-03-25T14:26:54.824Z,44.27
2023-03-25T14:32:03.533Z,44.18
2023-03-25T14:37:05.904Z,43.81
2023-03-25T14:42:07.832Z,43.88
2023-03-25T14:47:16.315Z,43.66
2023-03-25T14:52:22.865Z,44.01
2023-03-25T14:57:29.047Z,43.86
2023-03-25T15:02:33.661Z,44.34
2023-03-25T15:07:44.620Z,44.38
2023-03-25T15:12:52.866Z,43.86
2023-03-25T15:17:55.047Z,43.88
2023-03-25T15:23:20.187Z,43.72
2023-03-25T15:28:50.141Z,43.73
2023-03-25T15:34:16.061Z,43.76
2023-03-25T15:39:45.315Z,43.68
2023-03-25T15:45:09.180Z,43.71
2023-03-25T15:50:55.461Z,43.67
2023-03-25T15:56:12.556Z,43.86
2023-03-25T16:01:35.722Z,43.57
2023-03-25T16:06:44.207Z,43.53
2023-03-25T16:11:46.669Z,43.88
2023-03-25T16:16:57.477Z,43.53
2023-03-25T16:22:02.949Z,43.48
2023-03-25T16:27:12.644Z,43.39
2023-03-25T16:32:24.078Z,43.46
2023-03-25T16:37:26.355Z,43.59
2023-03-25T16:42:34.804Z,43.48
2023-03-25T16:47:37.817Z,43.46
2023-03-25T16:52:39.870Z,43.60
2023-03-25T16:57:41.906Z,43.32
2023-03-25T17:02:44.694Z,43.56
2023-03-25T17:07:49.112Z,43.45
2023-03-25T17:13:03.349Z,43.17
2023-03-25T17:18:13.393Z,43.41
2023-03-25T17:23:18.419Z,43.11
2023-03-25T17:28:34.215Z,43.16
2023-03-25T17:33:40.034Z,43.09
2023-03-25T17:38:45.558Z,43.32
2023-03-25T17:43:57.436Z,43.25
2023-03-25T17:49:00.150Z,43.08
2023-03-25T17:54:02.320Z,43.11
2023-03-25T17:59:14.538Z,43.31
2023-03-25T18:04:21.459Z,43.18
2023-03-25T18:09:24.894Z,43.37
2023-03-25T18:14:27.376Z,43.30
2023-03-25T18:19:32.304Z,43.13
2023-03-25T18:24:34.463Z,43.28
2023-03-25T18:29:37.783Z,43.26
2023-03-25T18:34:39.868Z,43.05
2023-03-25T18:39:41.893Z,43.17
2023-03-25T18:44:44.012Z,43.00
2023-03-25T18:49:46.186Z,42.89
2023-03-25T18:54:48.189Z,42.86
2023-03-25T18:59:50.445Z,42.77
2023-03-25T19:05:00.589Z,42.81
2023-03-25T19:10:03.338Z,43.11
2023-03-25T19:15:05.688Z,43.07
2023-03-25T19:20:09.599Z,42.78
2023-03-25T19:25:12.079Z,42.71
2023-03-25T19:30:17.490Z,43.02
2023-03-25T19:35:21.231Z,42.83
2023-03-25T19:40:28.715Z,42.80
2023-03-25T19:45:31.682Z,42.87
2023-03-25T19:50:35.609Z,42.74
2023-03-25T19:55:37.480Z,42.72
2023-03-25T20:00:40.017Z,42.87
2023-03-25T20:05:42.319Z,42.94
2023-03-25T20:10:44.508Z,42.65
2023-03-25T20:15:46.681Z,42.73
2023-03-25T20:20:48.613Z,43.44
2023-03-25T20:25:52.726Z,43.79
2023-03-25T20:30:56.049Z,43.88
2023-03-25T20:35:58.319Z,43.90
2023-03-25T20:41:00.505Z,43.54
2023-03-25T20:46:03.000Z,43.42
2023-03-25T20:51:07.459Z,43.40
2023-03-25T20:56:10.210Z,43.50
2023-03-25T21:01:12.401Z,43.44
2023-03-25T21:06:24.338Z,43.61
2023-03-25T21:11:27.562Z,43.46
2023-03-25T21:16:29.687Z,43.45
2023-03-25T21:21:32.656Z,44.73
2023-03-25T21:26:35.037Z,44.05
2023-03-25T21:31:37.217Z,44.62
2023-03-25T21:36:39.078Z,44.62
2023-03-25T21:41:41.017Z,44.38
2023-03-25T21:46:43.040Z,44.30
2023-03-25T21:51:50.644Z,44.00
2023-03-25T21:56:55.013Z,44.08
2023-03-25T22:01:56.944Z,44.02
2023-03-25T22:06:58.894Z,44.18
2023-03-25T22:12:00.883Z,44.24
2023-03-25T22:17:02.974Z,44.07
2023-03-25T22:22:04.961Z,44.23
2023-03-25T22:27:06.953Z,44.30
2023-03-25T22:32:08.779Z,44.29
2023-03-25T22:37:10.646Z,44.49
2023-03-25T22:42:12.735Z,44.44
2023-03-25T22:47:14.925Z,44.44
2023-03-25T22:52:17.001Z,44.39
2023-03-25T22:57:19.014Z,44.72
2023-03-25T23:02:21.097Z,44.55
2023-03-25T23:07:23.069Z,44.94
2023-03-25T23:12:26.389Z,44.78
2023-03-25T23:17:28.301Z,44.64
2023-03-25T23:22:30.176Z,44.90
2023-03-25T23:27:34.160Z,45.26
2023-03-25T23:32:36.244Z,44.45
2023-03-25T23:37:38.107Z,43.99
2023-03-25T23:42:39.989Z,43.86
2023-03-25T23:47:41.984Z,43.55
2023-03-25T23:52:44.118Z,43.31
2023-03-25T23:57:46.059Z,43.07
